createdAt,value
2023-10-22T00:00:10.953Z,8.37
2023-10-22T00:02:41.855Z,8.36
2023-10-22T00:05:10.317Z,8.35
2023-10-22T00:07:37.925Z,8.32
2023-10-22T00:10:05.850Z,8.29
2023-10-22T00:12:33.422Z,8.28
2023-10-22T00:15:01.076Z,8.27
2023-10-22T00:17:29.271Z,8.26
2023-10-22T00:19:56.784Z,8.24
2023-10-22T00:22:24.354Z,8.24
2023-10-22T00:24:52.091Z,8.23
2023-10-22T00:27:19.601Z,8.24
2023-10-22T00:29:47.288Z,8.23
2023-10-22T00:32:14.944Z,8.21
2023-10-22T00:34:43.850Z,8.20
2023-10-22T00:37:11.902Z,8.20
2023-10-22T00:39:39.456Z,8.21
2023-10-22T00:42:07.099Z,8.21
2023-10-22T00:44:36.285Z,8.20
2023-10-22T00:47:04.375Z,8.20
2023-10-22T00:49:32.129Z,8.20
2023-10-22T00:51:59.642Z,8.20
2023-10-22T00:54:27.384Z,8.19
2023-10-22T00:56:55.073Z,8.17
2023-10-22T00:59:22.729Z,8.10
2023-10-22T01:01:50.245Z,8.10
2023-10-22T01:04:17.827Z,8.10
2023-10-22T01:06:46.001Z,8.10
2023-10-22T01:09:14.647Z,8.09
2023-10-22T01:12:10.464Z,8.08
2023-10-22T01:14:38.208Z,8.06
2023-10-22T01:17:05.986Z,8.06
2023-10-22T01:19:33.676Z,8.06
2023-10-22T01:22:01.151Z,8.05
2023-10-22T01:24:33.422Z,8.06
2023-10-22T01:27:00.955Z,8.06
2023-10-22T01:29:28.544Z,8.07
2023-10-22T01:31:56.108Z,8.08
2023-10-22T01:34:23.651Z,8.09
2023-10-22T01:36:51.306Z,8.08
2023-10-22T01:39:19.441Z,8.07
2023-10-22T01:41:46.995Z,8.06
2023-10-22T01:44:14.488Z,8.05
2023-10-22T01:46:43.354Z,8.05
2023-10-22T01:49:10.918Z,8.05
2023-10-22T01:51:38.517Z,8.04
2023-10-22T01:54:07.947Z,8.04
2023-10-22T01:56:35.491Z,8.05
2023-10-22T01:59:03.162Z,8.05
2023-10-22T02:01:30.701Z,8.05
2023-10-22T02:03:58.624Z,8.05
2023-10-22T02:06:26.246Z,8.04
2023-10-22T02:08:53.790Z,8.03
2023-10-22T02:11:21.412Z,8.02
2023-10-22T02:13:48.904Z,8.00
2023-10-22T02:16:16.512Z,7.99
2023-10-22T02:18:46.306Z,7.98
2023-10-22T02:21:13.959Z,7.97
2023-10-22T02:23:41.603Z,7.97
2023-10-22T02:26:09.982Z,7.95
2023-10-22T02:28:37.487Z,7.95
2023-10-22T02:31:05.882Z,7.93
2023-10-22T02:33:34.437Z,7.91
2023-10-22T02:36:02.389Z,7.88
2023-10-22T02:38:29.979Z,7.89
2023-10-22T02:40:57.518Z,7.90
2023-10-22T02:43:25.058Z,7.90
2023-10-22T02:45:56.249Z,7.92
2023-10-22T02:48:26.759Z,7.88
2023-10-22T02:50:54.443Z,7.85
2023-10-22T02:53:22.341Z,7.83
2023-10-22T02:55:59.282Z,7.82
2023-10-22T02:58:26.877Z,7.82
2023-10-22T03:00:56.875Z,7.81
2023-10-22T03:03:25.112Z,7.79
2023-10-22T03:05:53.790Z,7.79
2023-10-22T03:08:21.350Z,7.79
2023-10-22T03:10:48.824Z,7.76
2023-10-22T03:13:16.466Z,7.76
2023-10-22T03:15:44.003Z,7.77
2023-10-22T03:18:11.594Z,7.77
2023-10-22T03:20:39.664Z,7.77
2023-10-22T03:23:07.374Z,7.77
2023-10-22T03:25:35.663Z,7.78
2023-10-22T03:28:03.261Z,7.77
2023-10-22T03:30:30.779Z,7.76
2023-10-22T03:32:59.611Z,7.76
2023-10-22T03:35:27.367Z,7.76
2023-10-22T03:37:54.918Z,7.77
2023-10-22T03:40:22.385Z,7.75
2023-10-22T03:42:49.961Z,7.75
2023-10-22T03:45:17.615Z,7.74
2023-10-22T03:47:45.324Z,7.73
2023-10-22T03:50:13.040Z,7.73
2023-10-22T03:52:43.936Z,7.72
2023-10-22T03:55:12.218Z,7.72
2023-10-22T03:57:40.070Z,7.72
2023-10-22T04:00:09.093Z,7.73
2023-10-22T04:02:39.759Z,7.72
2023-10-22T04:05:09.312Z,7.71
2023-10-22T04:07:36.839Z,7.72
2023-10-22T04:10:11.035Z,7.73
2023-10-22T04:12:38.961Z,7.73
2023-10-22T04:15:07.315Z,7.71
2023-10-22T04:17:35.007Z,7.71
2023-10-22T04:20:02.779Z,7.72
2023-10-22T04:22:30.268Z,7.71
2023-10-22T04:24:57.813Z,7.71
2023-10-22T04:27:25.347Z,7.71
2023-10-22T04:29:54.212Z,7.72
2023-10-22T04:32:22.295Z,7.74
2023-10-22T04:34:49.821Z,7.73
2023-10-22T04:37:18.670Z,7.73
2023-10-22T04:39:46.237Z,7.73
2023-10-22T04:42:13.800Z,7.74
2023-10-22T04:44:43.760Z,7.76
2023-10-22T04:47:11.367Z,7.77
2023-10-22T04:49:38.975Z,7.85
2023-10-22T04:52:10.533Z,7.88
2023-10-22T04:54:38.659Z,7.89
2023-10-22T04:57:06.667Z,7.91
2023-10-22T04:59:34.288Z,7.94
2023-10-22T05:02:01.858Z,7.95
2023-10-22T05:04:29.487Z,7.98
2023-10-22T05:06:58.302Z,8.00
2023-10-22T05:09:25.860Z,8.02
2023-10-22T05:11:53.380Z,8.06
2023-10-22T05:14:21.437Z,8.10
2023-10-22T05:16:49.069Z,8.13
2023-10-22T05:19:16.713Z,8.15
2023-10-22T05:21:44.352Z,8.16
2023-10-22T05:24:12.101Z,8.17
2023-10-22T05:26:41.208Z,8.19
2023-10-22T05:29:09.056Z,8.22
2023-10-22T05:31:36.642Z,8.27
2023-10-22T05:34:04.232Z,8.31
2023-10-22T05:36:32.574Z,8.35
2023-10-22T05:39:00.325Z,8.38
2023-10-22T05:41:28.555Z,8.41
2023-10-22T05:43:57.932Z,8.43
2023-10-22T05:46:26.781Z,8.43
2023-10-22T05:48:54.447Z,8.43
2023-10-22T05:51:22.111Z,8.42
2023-10-22T05:53:49.828Z,8.41
2023-10-22T05:56:17.705Z,8.41
2023-10-22T05:58:45.217Z,8.42
2023-10-22T06:01:13.979Z,8.42
2023-10-22T06:03:42.923Z,8.43
2023-10-22T06:06:12.437Z,8.46
2023-10-22T06:08:40.048Z,8.45
2023-10-22T06:11:07.632Z,8.45
2023-10-22T06:13:35.477Z,8.49
2023-10-22T06:16:03.418Z,8.56
2023-10-22T06:18:31.224Z,8.58
2023-10-22T06:20:58.821Z,8.59
2023-10-22T06:23:26.320Z,8.61
2023-10-22T06:25:53.800Z,8.64
2023-10-22T06:28:21.828Z,8.69
2023-10-22T06:30:49.387Z,8.71
2023-10-22T06:33:17.113Z,8.70
2023-10-22T06:35:44.806Z,8.70
2023-10-22T06:38:12.428Z,8.69
2023-10-22T06:40:39.919Z,8.67
2023-10-22T06:43:07.391Z,8.66
2023-10-22T06:45:36.926Z,8.69
2023-10-22T06:48:04.790Z,8.72
2023-10-22T06:50:32.436Z,8.75
2023-10-22T06:53:00.029Z,8.81
2023-10-22T06:55:27.639Z,8.86
2023-10-22T06:57:55.147Z,8.90
2023-10-22T07:00:22.887Z,8.93
2023-10-22T07:02:50.530Z,8.96
2023-10-22T07:05:18.060Z,8.99
2023-10-22T07:07:45.691Z,9.03
2023-10-22T07:10:13.238Z,9.09
2023-10-22T07:12:40.782Z,9.10
2023-10-22T07:15:10.609Z,9.11
2023-10-22T07:17:38.231Z,9.11
2023-10-22T07:20:07.409Z,9.15
2023-10-22T07:22:34.939Z,9.21
2023-10-22T07:25:02.425Z,9.24
2023-10-22T07:27:29.969Z,9.28
2023-10-22T07:29:57.562Z,9.34
2023-10-22T07:32:25.114Z,9.39
2023-10-22T07:34:52.838Z,9.37
2023-10-22T07:37:20.406Z,9.37
2023-10-22T07:39:47.933Z,9.39
2023-10-22T07:42:15.794Z,9.41
2023-10-22T07:44:44.944Z,9.41
2023-10-22T07:47:13.232Z,9.40
2023-10-22T07:49:40.709Z,9.47
2023-10-22T07:52:08.360Z,9.56
2023-10-22T07:54:36.079Z,9.67
2023-10-22T07:57:03.920Z,9.74
2023-10-22T07:59:31.432Z,9.74
2023-10-22T08:01:59.007Z,9.78
2023-10-22T08:04:26.688Z,9.80
2023-10-22T08:06:54.265Z,9.84
2023-10-22T08:09:21.906Z,9.87
2023-10-22T08:11:49.592Z,9.89
2023-10-22T08:14:17.356Z,9.94
2023-10-22T08:16:44.918Z,10.02
2023-10-22T08:19:12.417Z,10.10
2023-10-22T08:21:39.960Z,10.16
2023-10-22T08:24:08.117Z,10.17
2023-10-22T08:26:35.639Z,10.19
2023-10-22T08:29:03.475Z,10.18
2023-10-22T08:31:31.011Z,10.21
2023-10-22T08:33:58.481Z,10.27
2023-10-22T08:36:27.329Z,10.35
2023-10-22T08:38:55.192Z,10.44
2023-10-22T08:41:23.496Z,10.51
2023-10-22T08:43:51.066Z,10.55
2023-10-22T08:46:18.750Z,10.58
2023-10-22T08:48:47.522Z,10.61
2023-10-22T08:51:15.256Z,10.67
2023-10-22T08:53:42.768Z,10.73
2023-10-22T08:56:10.357Z,10.81
2023-10-22T08:58:37.886Z,10.86
2023-10-22T09:01:05.668Z,10.86
2023-10-22T09:03:33.926Z,10.86
2023-10-22T09:06:02.664Z,10.87
2023-10-22T09:08:43.903Z,10.90
2023-10-22T09:11:14.162Z,10.92
2023-10-22T09:13:41.936Z,10.95
2023-10-22T09:16:12.359Z,11.01
2023-10-22T09:18:46.130Z,11.07
2023-10-22T09:21:13.796Z,11.14
2023-10-22T09:23:43.855Z,11.20
2023-10-22T09:26:12.051Z,11.26
2023-10-22T09:28:39.718Z,11.31
2023-10-22T09:31:07.317Z,11.35
2023-10-22T09:33:42.930Z,11.41
2023-10-22T09:36:13.874Z,11.51
2023-10-22T09:38:51.724Z,11.60
2023-10-22T09:41:29.941Z,11.72
2023-10-22T09:44:01.649Z,11.85
2023-10-22T09:46:30.474Z,11.93
2023-10-22T09:49:02.299Z,12.00
2023-10-22T09:51:35.195Z,12.05
2023-10-22T09:54:07.596Z,12.10
2023-10-22T09:56:53.824Z,12.10
2023-10-22T09:59:24.969Z,12.11
2023-10-22T10:01:52.644Z,12.20
2023-10-22T10:04:22.495Z,12.32
2023-10-22T10:06:51.173Z,12.37
2023-10-22T10:09:18.873Z,12.43
2023-10-22T10:11:46.439Z,12.49
2023-10-22T10:14:14.764Z,12.53
2023-10-22T10:16:46.240Z,12.63
2023-10-22T10:19:22.375Z,12.82
2023-10-22T10:21:51.343Z,13.00
2023-10-22T10:24:21.287Z,13.04
2023-10-22T10:26:51.465Z,13.04
2023-10-22T10:29:29.844Z,13.00
2023-10-22T10:32:20.421Z,13.00
2023-10-22T10:34:48.905Z,13.10
2023-10-22T10:37:17.069Z,13.18
2023-10-22T10:39:52.529Z,13.20
2023-10-22T10:42:32.574Z,13.17
2023-10-22T10:45:00.747Z,13.18
2023-10-22T10:47:34.510Z,13.17
2023-10-22T10:50:05.516Z,13.19
2023-10-22T10:52:36.199Z,13.18
2023-10-22T10:55:16.350Z,13.24
2023-10-22T10:57:48.369Z,13.28
2023-10-22T11:00:30.939Z,13.29
2023-10-22T11:03:03.673Z,13.29
2023-10-22T11:05:34.603Z,13.24
2023-10-22T11:08:02.095Z,13.20
2023-10-22T11:10:30.528Z,13.19
2023-10-22T11:13:08.293Z,13.18
2023-10-22T11:15:38.392Z,13.22
2023-10-22T11:18:07.293Z,13.28
2023-10-22T11:20:35.063Z,13.31
2023-10-22T11:23:02.634Z,13.29
2023-10-22T11:25:30.362Z,13.26
2023-10-22T11:27:58.232Z,13.26
2023-10-22T11:30:39.338Z,13.25
2023-10-22T11:33:12.406Z,13.17
2023-10-22T11:35:40.041Z,13.10
2023-10-22T11:38:07.643Z,13.07
2023-10-22T11:40:36.527Z,13.03
2023-10-22T11:43:13.903Z,12.96
2023-10-22T11:45:56.864Z,12.87
2023-10-22T11:48:25.802Z,12.83
2023-10-22T11:50:57.710Z,12.83
2023-10-22T11:53:28.751Z,12.83
2023-10-22T11:55:56.282Z,12.84
2023-10-22T11:58:27.373Z,12.86
2023-10-22T12:00:54.993Z,12.90
2023-10-22T12:03:22.585Z,12.95
2023-10-22T12:05:50.266Z,12.94
2023-10-22T12:08:17.996Z,12.89
2023-10-22T12:10:45.714Z,12.87
2023-10-22T12:13:13.414Z,12.84
2023-10-22T12:15:40.940Z,12.82
2023-10-22T12:18:09.513Z,12.82
2023-10-22T12:20:37.961Z,12.82
2023-10-22T12:23:05.517Z,12.80
2023-10-22T12:25:33.292Z,12.77
2023-10-22T12:28:01.153Z,12.71
2023-10-22T12:30:28.976Z,12.63
2023-10-22T12:32:56.706Z,12.62
2023-10-22T12:35:24.665Z,12.62
2023-10-22T12:37:52.881Z,12.59
2023-10-22T12:40:20.743Z,12.58
2023-10-22T12:42:48.300Z,12.58
2023-10-22T12:45:15.903Z,12.58
2023-10-22T12:47:43.484Z,12.57
2023-10-22T12:50:11.048Z,12.53
2023-10-22T12:52:38.639Z,12.55
2023-10-22T12:55:06.853Z,12.59
2023-10-22T12:57:34.624Z,12.61
2023-10-22T13:00:06.353Z,12.59
2023-10-22T13:02:35.679Z,12.56
2023-10-22T13:05:04.438Z,12.54
2023-10-22T13:07:32.022Z,12.55
2023-10-22T13:09:59.652Z,12.56
2023-10-22T13:12:27.221Z,12.58
2023-10-22T13:14:55.085Z,12.60
2023-10-22T13:17:22.688Z,12.61
2023-10-22T13:19:50.236Z,12.60
2023-10-22T13:22:18.640Z,12.59
2023-10-22T13:24:46.324Z,12.56
2023-10-22T13:27:13.995Z,12.50
2023-10-22T13:29:41.501Z,12.48
2023-10-22T13:32:09.100Z,12.47
2023-10-22T13:34:36.976Z,12.48
2023-10-22T13:37:05.488Z,12.46
2023-10-22T13:39:33.048Z,12.43
2023-10-22T13:42:00.639Z,12.37
2023-10-22T13:44:28.345Z,12.35
2023-10-22T13:46:55.930Z,12.32
2023-10-22T13:49:23.476Z,12.31
2023-10-22T13:51:51.020Z,12.31
2023-10-22T13:54:18.569Z,12.29
2023-10-22T13:56:46.084Z,12.27
2023-10-22T13:59:15.302Z,12.24
2023-10-22T14:01:43.063Z,12.22
2023-10-22T14:04:10.748Z,12.21
2023-10-22T14:06:38.461Z,12.20
2023-10-22T14:09:06.142Z,12.18
2023-10-22T14:11:33.668Z,12.14
2023-10-22T14:14:03.107Z,12.11
2023-10-22T14:16:31.025Z,12.10
2023-10-22T14:18:58.640Z,12.15
2023-10-22T14:21:26.223Z,12.14
2023-10-22T14:23:53.970Z,12.11
2023-10-22T14:26:22.133Z,12.05
2023-10-22T14:28:49.669Z,11.99
2023-10-22T14:31:17.308Z,11.99
2023-10-22T14:33:44.858Z,11.98
2023-10-22T14:36:13.739Z,11.95
2023-10-22T14:38:41.402Z,11.90
2023-10-22T14:41:09.047Z,11.85
2023-10-22T14:43:36.575Z,11.80
2023-10-22T14:46:04.383Z,11.74
2023-10-22T14:48:32.237Z,11.67
2023-10-22T14:51:02.005Z,11.63
2023-10-22T14:53:30.626Z,11.61
2023-10-22T14:56:02.596Z,11.57
2023-10-22T14:58:30.412Z,11.55
2023-10-22T15:01:04.896Z,11.51
2023-10-22T15:03:32.600Z,11.44
2023-10-22T15:06:00.760Z,11.39
2023-10-22T15:08:28.484Z,11.37
2023-10-22T15:10:56.246Z,11.33
2023-10-22T15:13:23.812Z,11.30
2023-10-22T15:15:51.355Z,11.26
2023-10-22T15:18:19.085Z,11.22
2023-10-22T15:20:48.472Z,11.17
2023-10-22T15:23:16.338Z,11.12
2023-10-22T15:25:51.087Z,11.09
2023-10-22T15:28:18.920Z,11.06
2023-10-22T15:30:47.379Z,11.05
2023-10-22T15:33:15.251Z,11.02
2023-10-22T15:35:42.980Z,10.99
2023-10-22T15:38:11.659Z,10.94
2023-10-22T15:40:39.331Z,10.94
2023-10-22T15:43:07.745Z,10.95
2023-10-22T15:45:39.256Z,10.93
2023-10-22T15:48:06.776Z,10.94
2023-10-22T15:50:34.382Z,10.90
2023-10-22T15:53:01.975Z,10.85
2023-10-22T15:55:29.537Z,10.81
2023-10-22T15:57:57.067Z,10.77
2023-10-22T16:00:24.696Z,10.73
2023-10-22T16:02:52.459Z,10.68
2023-10-22T16:05:20.061Z,10.64
2023-10-22T16:07:48.017Z,10.61
2023-10-22T16:10:15.713Z,10.59
2023-10-22T16:12:43.518Z,10.57
2023-10-22T16:15:16.271Z,10.55
2023-10-22T16:17:44.266Z,10.55
2023-10-22T16:20:13.255Z,10.55
2023-10-22T16:22:40.925Z,10.53
2023-10-22T16:25:08.902Z,10.50
2023-10-22T16:27:37.149Z,10.46
2023-10-22T16:30:05.383Z,10.45
2023-10-22T16:32:33.288Z,10.48
2023-10-22T16:35:01.412Z,10.50
2023-10-22T16:37:29.017Z,10.52
2023-10-22T16:39:56.720Z,10.53
2023-10-22T16:42:26.316Z,10.53
2023-10-22T16:44:55.078Z,10.55
2023-10-22T16:47:22.898Z,10.54
2023-10-22T16:49:50.640Z,10.50
2023-10-22T16:52:18.165Z,10.48
2023-10-22T16:54:46.999Z,10.46
2023-10-22T16:57:14.770Z,10.45
2023-10-22T16:59:42.843Z,10.45
2023-10-22T17:02:10.601Z,10.45
2023-10-22T17:04:38.137Z,10.45
2023-10-22T17:07:05.644Z,10.46
2023-10-22T17:09:33.343Z,10.46
2023-10-22T17:12:01.073Z,10.44
2023-10-22T17:14:41.388Z,10.42
2023-10-22T17:17:16.266Z,10.40
2023-10-22T17:19:44.044Z,10.37
2023-10-22T17:22:11.879Z,10.36
2023-10-22T17:24:39.482Z,10.35
2023-10-22T17:27:07.231Z,10.35
2023-10-22T17:29:34.883Z,10.35
2023-10-22T17:32:02.755Z,10.34
2023-10-22T17:34:32.537Z,10.31
2023-10-22T17:37:00.263Z,10.30
2023-10-22T17:39:27.936Z,10.30
2023-10-22T17:41:55.845Z,10.29
2023-10-22T17:44:23.517Z,10.27
2023-10-22T17:46:51.206Z,10.28
2023-10-22T17:49:21.808Z,10.29
2023-10-22T17:51:50.970Z,10.27
2023-10-22T17:54:18.703Z,10.28
2023-10-22T17:56:46.301Z,10.30
2023-10-22T17:59:13.865Z,10.33
2023-10-22T18:01:41.429Z,10.36
2023-10-22T18:04:09.257Z,10.39
2023-10-22T18:06:37.009Z,10.40
2023-10-22T18:09:05.467Z,10.39
2023-10-22T18:11:32.995Z,10.41
2023-10-22T18:14:01.965Z,10.45
2023-10-22T18:16:29.750Z,10.48
2023-10-22T18:18:59.786Z,10.51
2023-10-22T18:21:28.175Z,10.52
2023-10-22T18:23:55.802Z,10.55
2023-10-22T18:26:23.332Z,10.57
2023-10-22T18:28:50.974Z,10.59
2023-10-22T18:31:18.639Z,10.62
2023-10-22T18:33:46.544Z,10.63
2023-10-22T18:36:14.286Z,10.66
2023-10-22T18:38:42.188Z,10.67
2023-10-22T18:41:16.379Z,10.67
2023-10-22T18:43:48.826Z,10.68
2023-10-22T18:46:17.862Z,10.70
2023-10-22T18:48:46.628Z,10.71
2023-10-22T18:51:19.787Z,10.73
2023-10-22T18:53:47.569Z,10.73
2023-10-22T18:56:15.212Z,10.73
2023-10-22T18:58:42.903Z,10.73
2023-10-22T19:01:26.359Z,10.74
2023-10-22T19:04:01.330Z,10.75
2023-10-22T19:06:30.303Z,10.73
2023-10-22T19:09:00.969Z,10.73
2023-10-22T19:11:30.560Z,10.70
2023-10-22T19:13:58.871Z,10.70
2023-10-22T19:16:28.008Z,10.71
2023-10-22T19:18:55.679Z,10.71
2023-10-22T19:21:23.502Z,10.67
2023-10-22T19:23:51.388Z,10.63
2023-10-22T19:26:18.886Z,10.57
2023-10-22T19:28:46.430Z,10.49
2023-10-22T19:31:14.194Z,10.42
2023-10-22T19:33:42.207Z,10.35
2023-10-22T19:36:16.782Z,10.28
2023-10-22T19:38:44.750Z,10.21
2023-10-22T19:41:12.303Z,10.17
2023-10-22T19:43:39.922Z,10.12
2023-10-22T19:46:07.552Z,10.07
2023-10-22T19:48:36.176Z,10.03
2023-10-22T19:51:04.269Z,9.98
2023-10-22T19:53:32.118Z,9.96
2023-10-22T19:56:01.075Z,9.93
2023-10-22T19:58:30.383Z,9.89
2023-10-22T20:00:58.183Z,9.85
2023-10-22T20:03:25.843Z,9.82
2023-10-22T20:05:54.301Z,9.77
2023-10-22T20:08:22.836Z,9.73
2023-10-22T20:10:50.457Z,9.72
2023-10-22T20:13:18.148Z,9.71
2023-10-22T20:15:45.782Z,9.68
2023-10-22T20:18:13.364Z,9.66
2023-10-22T20:20:41.024Z,9.65
2023-10-22T20:23:08.525Z,9.62
2023-10-22T20:25:36.043Z,9.59
2023-10-22T20:28:08.345Z,9.54
2023-10-22T20:30:36.428Z,9.50
2023-10-22T20:33:04.384Z,9.48
2023-10-22T20:35:33.234Z,9.46
2023-10-22T20:38:01.802Z,9.44
2023-10-22T20:40:39.430Z,9.42
2023-10-22T20:43:16.936Z,9.41
2023-10-22T20:45:45.157Z,9.41
2023-10-22T20:48:12.800Z,9.40
2023-10-22T20:50:40.539Z,9.40
2023-10-22T20:53:08.038Z,9.41
2023-10-22T20:55:38.985Z,9.42
2023-10-22T20:58:06.675Z,9.41
2023-10-22T21:00:34.335Z,9.44
2023-10-22T21:03:01.953Z,9.45
2023-10-22T21:05:29.537Z,9.46
2023-10-22T21:07:57.043Z,9.45
2023-10-22T21:10:24.640Z,9.44
2023-10-22T21:12:52.236Z,9.44
2023-10-22T21:15:19.805Z,9.44
2023-10-22T21:17:47.424Z,9.45
2023-10-22T21:20:15.259Z,9.44
2023-10-22T21:22:42.912Z,9.46
2023-10-22T21:25:10.470Z,9.47
2023-10-22T21:27:38.110Z,9.49
2023-10-22T21:30:06.391Z,9.52
2023-10-22T21:32:33.901Z,9.55
2023-10-22T21:35:01.481Z,9.57
2023-10-22T21:37:28.998Z,9.61
2023-10-22T21:40:02.771Z,9.65
2023-10-22T21:42:30.319Z,9.66
2023-10-22T21:44:58.344Z,9.66
2023-10-22T21:47:27.541Z,9.66
2023-10-22T21:49:55.279Z,9.65
2023-10-22T21:52:23.313Z,9.63
2023-10-22T21:54:51.133Z,9.63
2023-10-22T21:57:18.852Z,9.60
2023-10-22T21:59:46.431Z,9.56
2023-10-22T22:02:14.014Z,9.50
2023-10-22T22:04:41.536Z,9.45
2023-10-22T22:07:09.081Z,9.42
2023-10-22T22:09:36.720Z,9.39
2023-10-22T22:12:04.770Z,9.35
2023-10-22T22:14:32.307Z,9.31
2023-10-22T22:17:00.246Z,9.28
2023-10-22T22:19:27.844Z,9.31
2023-10-22T22:21:55.421Z,9.33
2023-10-22T22:24:23.083Z,9.39
2023-10-22T22:26:50.642Z,9.48
2023-10-22T22:29:18.127Z,9.57
2023-10-22T22:31:45.693Z,9.65
2023-10-22T22:34:13.270Z,9.74
2023-10-22T22:36:40.853Z,9.82
2023-10-22T22:39:08.643Z,9.89
2023-10-22T22:41:36.151Z,9.96
2023-10-22T22:44:03.930Z,10.03
2023-10-22T22:46:31.515Z,10.07
2023-10-22T22:48:59.516Z,10.14
2023-10-22T22:51:27.158Z,10.20
2023-10-22T22:53:54.776Z,10.26
2023-10-22T22:56:22.329Z,10.34
2023-10-22T22:58:49.856Z,10.41
2023-10-22T23:01:23.597Z,10.47
2023-10-22T23:03:51.219Z,10.51
2023-10-22T23:06:19.206Z,10.55
2023-10-22T23:08:46.830Z,10.57
2023-10-22T23:11:14.357Z,10.58
2023-10-22T23:13:41.906Z,10.59
2023-10-22T23:16:09.494Z,10.59
2023-10-22T23:18:37.158Z,10.57
2023-10-22T23:21:04.633Z,10.54
2023-10-22T23:23:32.193Z,10.48
2023-10-22T23:25:59.674Z,10.41
2023-10-22T23:28:27.180Z,10.35
2023-10-22T23:30:54.886Z,10.29
2023-10-22T23:33:22.441Z,10.24
2023-10-22T23:35:50.036Z,10.17
2023-10-22T23:38:17.634Z,10.10
2023-10-22T23:40:45.202Z,10.03
2023-10-22T23:43:12.791Z,9.97
2023-10-22T23:45:40.407Z,9.93
2023-10-22T23:48:08.300Z,9.88
2023-10-22T23:50:35.865Z,9.83
2023-10-22T23:53:03.440Z,9.78
2023-10-22T23:55:30.985Z,9.75
2023-10-22T23:57:58.481Z,9.77
